»·PEaware :: N348WT KOXR-KRNM

N348WT :: KOXR-KRNM

FLIGHT INFORMATION

Flight Status: Arrived
Operator: Privately registered:
United States
More flights under this callsign
Pilot: Gerald G. (23948)
Aircraft: SOCATA TBM-900
(TBM9)
More flights by this aircraft type
Origin: KOXR Oxnard
United States
Destination: KRNM Ramona
United States
More flights between these airports :: More routes between these airports
Route: VTU V208 SXC V208 JLI
File this flight plan on PilotEdge
Remarks: TEC route VTUP29
Altitude:
(Current/Filed)
9,000ft
Speed:
(Current/Filed)
250kts
Departed: 02-Jan-21 12:35 PM
Arrived: 02-Jan-21 01:18 PM
Distance/Time
Traveled:
134nm/0:43
Distance/Time
To Go:
Arrived

Flight Plot

Page will automatically refresh every two minutes.


Map Options




Map Legend


Flown Route
Filed Route
Departure Airport
Arrival Airport
Navaid (VOR, NDB)
Fix

Horizontal Profiles

Position Reports

Time Latitude Longitude Heading Altitude Ground
Speed
02-Jan-21 11:48 34.199388 -119.202602 188 47ft 0kts
02-Jan-21 11:49 34.199392 -119.202788 349 47ft 1kts
02-Jan-21 11:51 34.199283 -119.202622 188 47ft 0kts
02-Jan-21 11:52 34.199283 -119.202622 188 47ft 0kts
02-Jan-21 11:53 34.199283 -119.202622 188 47ft 0kts
02-Jan-21 11:54 34.199283 -119.202622 188 47ft 0kts
02-Jan-21 11:55 34.199283 -119.202622 188 47ft 0kts
02-Jan-21 11:57 34.199283 -119.202622 188 47ft 0kts
02-Jan-21 11:58 34.199283 -119.202622 188 47ft 0kts
02-Jan-21 11:59 34.199283 -119.202622 188 47ft 0kts
02-Jan-21 12:00 34.199283 -119.202622 188 47ft 0kts
02-Jan-21 12:01 34.199283 -119.202622 188 47ft 0kts
02-Jan-21 12:02 34.199283 -119.202622 188 47ft 0kts
02-Jan-21 12:03 34.199283 -119.202622 188 47ft 0kts
02-Jan-21 12:04 34.199283 -119.202622 188 47ft 0kts
02-Jan-21 12:05 34.199283 -119.202622 188 47ft 0kts
02-Jan-21 12:06 34.199283 -119.202622 188 47ft 0kts
02-Jan-21 12:07 34.199283 -119.202622 188 47ft 0kts
02-Jan-21 12:08 34.199283 -119.202622 188 47ft 0kts
02-Jan-21 12:09 34.199283 -119.202622 188 47ft 0kts
02-Jan-21 12:10 34.199283 -119.202622 188 47ft 0kts
02-Jan-21 12:11 34.199283 -119.202622 188 47ft 0kts
02-Jan-21 12:12 34.199283 -119.202622 188 47ft 0kts
02-Jan-21 12:13 34.199283 -119.202622 188 47ft 0kts
02-Jan-21 12:14 34.199283 -119.202622 188 47ft 0kts
02-Jan-21 12:14 34.199283 -119.202622 188 47ft 0kts
02-Jan-21 12:15 34.199283 -119.202622 188 47ft 0kts
02-Jan-21 12:17 34.199283 -119.202622 188 47ft 0kts
02-Jan-21 12:17 34.199283 -119.202622 188 47ft 0kts
02-Jan-21 12:18 34.199283 -119.202622 188 47ft 0kts
02-Jan-21 12:19 34.199283 -119.202622 188 47ft 0kts
02-Jan-21 12:20 34.199283 -119.202622 188 47ft 0kts
02-Jan-21 12:21 34.199283 -119.202622 188 47ft 0kts
02-Jan-21 12:22 34.199283 -119.202622 188 47ft 0kts
02-Jan-21 12:23 34.199283 -119.202622 188 47ft 0kts
02-Jan-21 12:24 34.199283 -119.202622 188 47ft 0kts
02-Jan-21 12:25 34.199283 -119.202622 188 47ft 0kts
02-Jan-21 12:26 34.199283 -119.202622 188 47ft 0kts
02-Jan-21 12:27 34.199283 -119.202622 188 47ft 0kts
02-Jan-21 12:28 34.199283 -119.202622 188 47ft 0kts
02-Jan-21 12:29 34.199300 -119.201868 39 46ft 0kts
02-Jan-21 12:30 34.199330 -119.201839 38 46ft 5kts
02-Jan-21 12:31 34.199782 -119.197537 16 44ft 0kts
02-Jan-21 12:32 34.199782 -119.197537 16 44ft 0kts
02-Jan-21 12:33 34.200753 -119.198578 270 43ft 34kts
02-Jan-21 12:34 34.200955 -119.235466 269 616ft 152kts
02-Jan-21 12:35 34.199523 -119.290946 268 1888ft 172kts
02-Jan-21 12:36 34.197734 -119.350482 268 3199ft 183kts
02-Jan-21 12:37 34.195825 -119.416786 268 3679ft 215kts
02-Jan-21 12:38 34.189609 -119.489746 231 3995ft 219kts
02-Jan-21 12:39 34.141474 -119.468373 134 5382ft 209kts
02-Jan-21 12:40 34.102160 -119.417115 133 6878ft 207kts
02-Jan-21 12:41 34.063137 -119.365447 133 8351ft 211kts
02-Jan-21 12:42 34.019944 -119.308411 133 8688ft 247kts
02-Jan-21 12:43 33.972163 -119.245410 133 8698ft 260kts
02-Jan-21 12:44 33.922948 -119.180468 133 8695ft 266kts
02-Jan-21 12:45 33.872306 -119.113716 133 8696ft 275kts
02-Jan-21 12:46 33.820279 -119.045057 133 8694ft 280kts
02-Jan-21 12:47 33.767707 -118.975631 133 8693ft 281kts
02-Jan-21 12:48 33.715573 -118.906735 132 8692ft 276kts
02-Jan-21 12:49 33.664165 -118.838958 133 8692ft 275kts
02-Jan-21 12:50 33.611851 -118.771784 133 8692ft 274kts
02-Jan-21 12:51 33.559717 -118.705053 133 8694ft 274kts
02-Jan-21 12:52 33.507408 -118.638093 133 8694ft 274kts
02-Jan-21 12:53 33.455274 -118.571349 133 8702ft 275kts
02-Jan-21 12:54 33.413587 -118.495938 117 8692ft 275kts
02-Jan-21 12:55 33.387817 -118.409872 113 8706ft 276kts
02-Jan-21 12:56 33.364017 -118.322718 105 8691ft 276kts
02-Jan-21 12:57 33.350536 -118.232600 98 8694ft 276kts
02-Jan-21 12:58 33.338651 -118.142158 99 8694ft 276kts
02-Jan-21 12:59 33.326665 -118.051758 99 8694ft 276kts
02-Jan-21 13:00 33.314592 -117.961214 99 8694ft 276kts
02-Jan-21 13:01 33.302415 -117.870440 99 8694ft 276kts
02-Jan-21 13:02 33.290378 -117.779977 97 8694ft 276kts
02-Jan-21 13:03 33.277074 -117.689697 100 8641ft 276kts
02-Jan-21 13:04 33.263132 -117.599299 102 8640ft 276kts
02-Jan-21 13:05 33.252068 -117.508753 97 8639ft 275kts
02-Jan-21 13:06 33.241343 -117.418380 98 8639ft 275kts
02-Jan-21 13:07 33.226426 -117.329199 111 8626ft 276kts
02-Jan-21 13:08 33.198960 -117.252781 116 7729ft 235kts
02-Jan-21 13:09 33.171445 -117.184948 116 6843ft 227kts
02-Jan-21 13:10 33.144085 -117.117777 116 5950ft 224kts
02-Jan-21 13:11 33.116501 -117.052139 118 5057ft 220kts
02-Jan-21 13:12 33.088497 -116.989122 118 4034ft 211kts
02-Jan-21 13:13 33.062722 -116.936347 125 3508ft 159kts
02-Jan-21 13:14 33.051550 -116.886317 90 3095ft 149kts
02-Jan-21 13:15 33.036841 -116.865192 253 2799ft 130kts
02-Jan-21 13:16 33.037352 -116.903222 280 1491ft 78kts
02-Jan-21 13:17 33.039886 -116.915376 277 1393ft 7kts

Navigation Log

Ident Type
Flight plan parsing failed, navigation log unavailable